sensor_id;sensor_type;location;lat;lon;timestamp;pressure;altitude;pressure_sealevel;temperature;humidity
73842;BME280;62184;52.006;5.924;2022-12-07T00:00:17;101038.22;;;5.67;81.84
73842;BME280;62184;52.006;5.924;2022-12-07T00:02:44;101029.38;;;5.57;81.94
73842;BME280;62184;52.006;5.924;2022-12-07T00:05:11;101035.59;;;5.50;81.91
73842;BME280;62184;52.006;5.924;2022-12-07T00:07:37;101030.31;;;5.44;81.95
73842;BME280;62184;52.006;5.924;2022-12-07T00:10:05;101033.81;;;5.38;82.07
73842;BME280;62184;52.006;5.924;2022-12-07T00:12:32;101033.81;;;5.28;82.06
73842;BME280;62184;52.006;5.924;2022-12-07T00:15:02;101032.94;;;5.23;82.03
73842;BME280;62184;52.006;5.924;2022-12-07T00:17:29;101035.59;;;5.17;82.14
73842;BME280;62184;52.006;5.924;2022-12-07T00:19:55;101037.34;;;5.12;82.08
73842;BME280;62184;52.006;5.924;2022-12-07T00:22:21;101036.47;;;5.08;82.14
73842;BME280;62184;52.006;5.924;2022-12-07T00:24:48;101026.75;;;5.05;82.35
73842;BME280;62184;52.006;5.924;2022-12-07T00:27:14;101038.22;;;5.03;82.30
73842;BME280;62184;52.006;5.924;2022-12-07T00:29:41;101033.81;;;4.96;82.18
73842;BME280;62184;52.006;5.924;2022-12-07T00:32:10;101028.53;;;4.93;82.23
73842;BME280;62184;52.006;5.924;2022-12-07T00:34:36;101019.69;;;4.89;82.31
73842;BME280;62184;52.006;5.924;2022-12-07T00:37:03;101017.91;;;4.88;82.53
73842;BME280;62184;52.006;5.924;2022-12-07T00:39:29;101014.34;;;4.86;82.46
73842;BME280;62184;52.006;5.924;2022-12-07T00:41:56;101015.25;;;4.87;82.28
73842;BME280;62184;52.006;5.924;2022-12-07T00:44:22;101022.31;;;4.85;82.30
73842;BME280;62184;52.006;5.924;2022-12-07T00:46:49;101014.38;;;4.83;82.26
73842;BME280;62184;52.006;5.924;2022-12-07T00:49:18;101005.53;;;4.81;82.45
73842;BME280;62184;52.006;5.924;2022-12-07T00:51:44;101006.41;;;4.80;82.22
73842;BME280;62184;52.006;5.924;2022-12-07T00:54:13;100996.72;;;4.79;81.92
73842;BME280;62184;52.006;5.924;2022-12-07T00:56:40;101005.53;;;4.78;81.82
73842;BME280;62184;52.006;5.924;2022-12-07T00:59:06;100998.50;;;4.77;81.55
73842;BME280;62184;52.006;5.924;2022-12-07T01:01:34;101005.53;;;4.73;81.63
73842;BME280;62184;52.006;5.924;2022-12-07T01:04:03;101001.13;;;4.72;81.60
73842;BME280;62184;52.006;5.924;2022-12-07T01:06:32;101001.09;;;4.69;81.37
73842;BME280;62184;52.006;5.924;2022-12-07T01:08:59;101006.41;;;4.65;81.37
73842;BME280;62184;52.006;5.924;2022-12-07T01:11:27;101005.50;;;4.61;81.43
73842;BME280;62184;52.006;5.924;2022-12-07T01:13:57;101001.97;;;4.58;81.55
73842;BME280;62184;52.006;5.924;2022-12-07T01:16:27;100999.34;;;4.58;81.37
73842;BME280;62184;52.006;5.924;2022-12-07T01:18:55;101007.25;;;4.55;81.21
73842;BME280;62184;52.006;5.924;2022-12-07T01:21:25;101009.00;;;4.53;81.17
73842;BME280;62184;52.006;5.924;2022-12-07T01:23:57;101012.53;;;4.50;81.17
73842;BME280;62184;52.006;5.924;2022-12-07T01:26:24;101008.13;;;4.49;81.24
73842;BME280;62184;52.006;5.924;2022-12-07T01:28:52;101009.88;;;4.49;81.33
73842;BME280;62184;52.006;5.924;2022-12-07T01:31:21;101013.41;;;4.48;81.14
73842;BME280;62184;52.006;5.924;2022-12-07T01:33:51;101010.75;;;4.48;81.34
73842;BME280;62184;52.006;5.924;2022-12-07T01:36:20;101009.00;;;4.48;81.18
73842;BME280;62184;52.006;5.924;2022-12-07T01:38:49;101009.00;;;4.47;80.96
73842;BME280;62184;52.006;5.924;2022-12-07T01:41:21;101012.53;;;4.49;81.08
73842;BME280;62184;52.006;5.924;2022-12-07T01:46:49;101004.63;;;4.52;81.15
73842;BME280;62184;52.006;5.924;2022-12-07T01:49:25;100998.44;;;4.50;80.68
73842;BME280;62184;52.006;5.924;2022-12-07T01:52:00;101000.19;;;4.46;80.56
73842;BME280;62184;52.006;5.924;2022-12-07T01:54:34;100999.31;;;4.43;80.60
73842;BME280;62184;52.006;5.924;2022-12-07T01:57:04;101002.81;;;4.40;80.31
73842;BME280;62184;52.006;5.924;2022-12-07T01:59:35;101007.19;;;4.37;80.37
73842;BME280;62184;52.006;5.924;2022-12-07T02:02:04;101005.44;;;4.32;80.46
73842;BME280;62184;52.006;5.924;2022-12-07T02:04:36;101000.16;;;4.32;80.59
73842;BME280;62184;52.006;5.924;2022-12-07T02:07:03;100993.97;;;4.30;80.18
73842;BME280;62184;52.006;5.924;2022-12-07T02:09:31;100994.81;;;4.28;80.45
73842;BME280;62184;52.006;5.924;2022-12-07T02:11:57;100993.97;;;4.26;80.42
73842;BME280;62184;52.006;5.924;2022-12-07T02:14:26;101000.13;;;4.23;80.27
73842;BME280;62184;52.006;5.924;2022-12-07T02:17:03;100993.06;;;4.21;80.33
73842;BME280;62184;52.006;5.924;2022-12-07T02:23:00;100994.81;;;4.17;80.16
73842;BME280;62184;52.006;5.924;2022-12-07T02:25:56;100997.44;;;4.14;80.02
73842;BME280;62184;52.006;5.924;2022-12-07T02:28:34;100994.78;;;4.13;79.65
73842;BME280;62184;52.006;5.924;2022-12-07T02:31:12;100997.44;;;4.08;79.75
73842;BME280;62184;52.006;5.924;2022-12-07T02:33:46;101004.47;;;4.08;79.68
73842;BME280;62184;52.006;5.924;2022-12-07T02:36:22;101000.06;;;4.07;79.92
73842;BME280;62184;52.006;5.924;2022-12-07T02:38:58;101002.69;;;4.05;79.42
73842;BME280;62184;52.006;5.924;2022-12-07T02:41:33;100997.38;;;4.04;79.57
73842;BME280;62184;52.006;5.924;2022-12-07T02:44:06;100998.25;;;4.03;79.56
73842;BME280;62184;52.006;5.924;2022-12-07T02:46:42;101002.66;;;4.02;79.33
73842;BME280;62184;52.006;5.924;2022-12-07T02:52:02;100994.75;;;3.99;79.01
73842;BME280;62184;52.006;5.924;2022-12-07T02:54:29;100997.41;;;4.01;78.96
73842;BME280;62184;52.006;5.924;2022-12-07T02:57:02;100994.72;;;4.02;78.98
73842;BME280;62184;52.006;5.924;2022-12-07T02:59:46;100990.34;;;4.04;78.87
73842;BME280;62184;52.006;5.924;2022-12-07T03:02:34;100995.63;;;4.06;78.91
73842;BME280;62184;52.006;5.924;2022-12-07T03:05:15;100993.03;;;4.10;78.92
73842;BME280;62184;52.006;5.924;2022-12-07T03:08:03;101002.75;;;4.17;79.29
73842;BME280;62184;52.006;5.924;2022-12-07T03:10:42;101003.66;;;4.25;79.53
73842;BME280;62184;52.006;5.924;2022-12-07T03:13:22;101000.16;;;4.32;79.70
73842;BME280;62184;52.006;5.924;2022-12-07T03:15:59;101002.81;;;4.34;79.54
73842;BME280;62184;52.006;5.924;2022-12-07T03:18:37;100996.63;;;4.37;79.64
73842;BME280;62184;52.006;5.924;2022-12-07T03:21:11;101008.13;;;4.42;79.66
73842;BME280;62184;52.006;5.924;2022-12-07T03:23:45;101001.94;;;4.47;79.80
73842;BME280;62184;52.006;5.924;2022-12-07T03:26:18;100993.13;;;4.53;79.53
73842;BME280;62184;52.006;5.924;2022-12-07T03:28:51;100989.63;;;4.55;79.47
73842;BME280;62184;52.006;5.924;2022-12-07T03:31:23;100994.94;;;4.58;79.37
73842;BME280;62184;52.006;5.924;2022-12-07T03:34:01;100992.28;;;4.58;79.28
73842;BME280;62184;52.006;5.924;2022-12-07T03:36:38;100982.56;;;4.62;79.02
73842;BME280;62184;52.006;5.924;2022-12-07T03:39:17;100981.72;;;4.67;79.13
73842;BME280;62184;52.006;5.924;2022-12-07T03:41:51;100973.78;;;4.72;78.95
73842;BME280;62184;52.006;5.924;2022-12-07T03:44:21;100976.44;;;4.75;78.92
73842;BME280;62184;52.006;5.924;2022-12-07T03:46:54;100981.72;;;4.77;79.19
73842;BME280;62184;52.006;5.924;2022-12-07T03:49:34;100979.06;;;4.80;78.96
73842;BME280;62184;52.006;5.924;2022-12-07T03:52:12;100975.53;;;4.79;78.99
73842;BME280;62184;52.006;5.924;2022-12-07T03:54:53;100981.72;;;4.80;79.29
73842;BME280;62184;52.006;5.924;2022-12-07T03:57:26;100984.38;;;4.81;79.21
73842;BME280;62184;52.006;5.924;2022-12-07T03:59:57;100976.44;;;4.81;79.13
73842;BME280;62184;52.006;5.924;2022-12-07T04:02:25;100979.09;;;4.83;79.04
73842;BME280;62184;52.006;5.924;2022-12-07T04:04:56;100978.19;;;4.82;79.05
73842;BME280;62184;52.006;5.924;2022-12-07T04:07:23;100978.19;;;4.82;78.89
73842;BME280;62184;52.006;5.924;2022-12-07T04:09:49;100974.66;;;4.79;78.63
73842;BME280;62184;52.006;5.924;2022-12-07T04:12:16;100984.38;;;4.75;78.65
73842;BME280;62184;52.006;5.924;2022-12-07T04:14:43;100970.25;;;4.73;78.46
73842;BME280;62184;52.006;5.924;2022-12-07T04:17:09;100962.31;;;4.71;78.54
73842;BME280;62184;52.006;5.924;2022-12-07T04:19:36;100966.72;;;4.68;78.31
73842;BME280;62184;52.006;5.924;2022-12-07T04:22:05;100966.69;;;4.62;78.25
73842;BME280;62184;52.006;5.924;2022-12-07T04:24:33;100970.25;;;4.58;78.33
73842;BME280;62184;52.006;5.924;2022-12-07T04:27:00;100966.72;;;4.59;78.01
73842;BME280;62184;52.006;5.924;2022-12-07T04:29:27;100971.13;;;4.58;78.23
73842;BME280;62184;52.006;5.924;2022-12-07T04:31:53;100983.47;;;4.62;78.12
73842;BME280;62184;52.006;5.924;2022-12-07T04:34:20;100977.28;;;4.65;78.24
73842;BME280;62184;52.006;5.924;2022-12-07T04:36:47;100973.78;;;4.69;78.49
73842;BME280;62184;52.006;5.924;2022-12-07T04:39:21;100968.47;;;4.72;78.35
73842;BME280;62184;52.006;5.924;2022-12-07T04:41:49;100966.72;;;4.74;78.56
73842;BME280;62184;52.006;5.924;2022-12-07T04:44:17;100972.00;;;4.79;78.28
73842;BME280;62184;52.006;5.924;2022-12-07T04:46:44;100957.91;;;4.83;78.75
73842;BME280;62184;52.006;5.924;2022-12-07T04:49:12;100958.81;;;4.83;78.57
73842;BME280;62184;52.006;5.924;2022-12-07T04:51:40;100959.69;;;4.84;78.71
73842;BME280;62184;52.006;5.924;2022-12-07T04:54:08;100962.34;;;4.84;78.54
73842;BME280;62184;52.006;5.924;2022-12-07T04:56:37;100961.44;;;4.82;78.88
73842;BME280;62184;52.006;5.924;2022-12-07T04:59:04;100964.06;;;4.79;78.59
73842;BME280;62184;52.006;5.924;2022-12-07T05:01:31;100963.22;;;4.75;78.25
73842;BME280;62184;52.006;5.924;2022-12-07T05:03:58;100960.56;;;4.69;78.07
73842;BME280;62184;52.006;5.924;2022-12-07T05:06:25;100959.66;;;4.64;77.98
73842;BME280;62184;52.006;5.924;2022-12-07T05:08:52;100950.84;;;4.59;77.70
73842;BME280;62184;52.006;5.924;2022-12-07T05:11:18;100949.94;;;4.54;77.56
73842;BME280;62184;52.006;5.924;2022-12-07T05:13:47;100946.41;;;4.49;77.57
73842;BME280;62184;52.006;5.924;2022-12-07T05:16:14;100953.47;;;4.47;77.40
73842;BME280;62184;52.006;5.924;2022-12-07T05:18:40;100954.31;;;4.44;77.38
73842;BME280;62184;52.006;5.924;2022-12-07T05:21:07;100955.22;;;4.43;77.16
73842;BME280;62184;52.006;5.924;2022-12-07T05:23:33;100956.09;;;4.41;77.15
73842;BME280;62184;52.006;5.924;2022-12-07T05:25:59;100946.41;;;4.41;77.35
73842;BME280;62184;52.006;5.924;2022-12-07T05:28:26;100951.72;;;4.43;76.87
73842;BME280;62184;52.006;5.924;2022-12-07T05:30:55;100955.22;;;4.42;76.97
73842;BME280;62184;52.006;5.924;2022-12-07T05:33:21;100951.69;;;4.40;77.32
73842;BME280;62184;52.006;5.924;2022-12-07T05:35:48;100956.97;;;4.37;77.37
73842;BME280;62184;52.006;5.924;2022-12-07T05:38:14;100956.09;;;4.38;77.60
73842;BME280;62184;52.006;5.924;2022-12-07T05:40:41;100964.03;;;4.41;77.69
73842;BME280;62184;52.006;5.924;2022-12-07T05:43:08;100963.16;;;4.46;77.91
73842;BME280;62184;52.006;5.924;2022-12-07T05:45:34;100956.09;;;4.47;77.82
73842;BME280;62184;52.006;5.924;2022-12-07T05:48:03;100953.47;;;4.47;77.92
73842;BME280;62184;52.006;5.924;2022-12-07T05:50:30;100952.59;;;4.43;78.01
73842;BME280;62184;52.006;5.924;2022-12-07T05:52:57;100953.47;;;4.41;77.77
73842;BME280;62184;52.006;5.924;2022-12-07T05:55:23;100954.31;;;4.38;77.67
73842;BME280;62184;52.006;5.924;2022-12-07T05:57:49;100951.69;;;4.35;77.54
73842;BME280;62184;52.006;5.924;2022-12-07T06:00:16;100952.56;;;4.32;77.50
73842;BME280;62184;52.006;5.924;2022-12-07T06:02:43;100946.38;;;4.32;77.07
73842;BME280;62184;52.006;5.924;2022-12-07T06:05:12;100957.84;;;4.31;77.14
73842;BME280;62184;52.006;5.924;2022-12-07T06:07:39;100944.59;;;4.28;76.91
73842;BME280;62184;52.006;5.924;2022-12-07T06:10:06;100948.13;;;4.25;77.00
73842;BME280;62184;52.006;5.924;2022-12-07T06:12:33;100949.00;;;4.21;76.91
73842;BME280;62184;52.006;5.924;2022-12-07T06:15:00;100948.13;;;4.18;76.95
73842;BME280;62184;52.006;5.924;2022-12-07T06:17:27;100945.47;;;4.15;77.02
73842;BME280;62184;52.006;5.924;2022-12-07T06:19:54;100947.19;;;4.11;76.85
73842;BME280;62184;52.006;5.924;2022-12-07T06:22:23;100943.69;;;4.09;77.04
73842;BME280;62184;52.006;5.924;2022-12-07T06:24:49;100948.97;;;4.08;77.34
73842;BME280;62184;52.006;5.924;2022-12-07T06:27:15;100948.94;;;4.06;77.18
73842;BME280;62184;52.006;5.924;2022-12-07T06:29:42;100953.34;;;4.03;77.34
73842;BME280;62184;52.006;5.924;2022-12-07T06:32:08;100949.81;;;4.01;77.29
73842;BME280;62184;52.006;5.924;2022-12-07T06:34:35;100953.34;;;3.98;77.51
73842;BME280;62184;52.006;5.924;2022-12-07T06:37:01;100952.44;;;3.96;77.38
73842;BME280;62184;52.006;5.924;2022-12-07T06:39:30;100947.16;;;3.93;77.25
73842;BME280;62184;52.006;5.924;2022-12-07T06:41:57;100955.97;;;3.92;77.59
73842;BME280;62184;52.006;5.924;2022-12-07T06:44:24;100950.69;;;3.92;77.66
73842;BME280;62184;52.006;5.924;2022-12-07T06:46:51;100953.31;;;3.92;77.51
73842;BME280;62184;52.006;5.924;2022-12-07T06:49:18;100956.84;;;3.92;77.57
73842;BME280;62184;52.006;5.924;2022-12-07T06:51:44;100957.72;;;3.93;77.63
73842;BME280;62184;52.006;5.924;2022-12-07T06:54:12;100960.34;;;3.94;77.50
73842;BME280;62184;52.006;5.924;2022-12-07T06:56:43;100960.34;;;3.94;77.48
73842;BME280;62184;52.006;5.924;2022-12-07T06:59:10;100958.63;;;3.93;77.48
73842;BME280;62184;52.006;5.924;2022-12-07T07:01:36;100954.19;;;3.91;77.63
73842;BME280;62184;52.006;5.924;2022-12-07T07:04:03;100955.94;;;3.89;77.73
73842;BME280;62184;52.006;5.924;2022-12-07T07:06:30;100955.06;;;3.88;77.66
73842;BME280;62184;52.006;5.924;2022-12-07T07:08:56;100955.91;;;3.86;77.47
73842;BME280;62184;52.006;5.924;2022-12-07T07:11:23;100960.31;;;3.85;77.76
73842;BME280;62184;52.006;5.924;2022-12-07T07:13:52;100958.56;;;3.84;77.70
73842;BME280;62184;52.006;5.924;2022-12-07T07:16:18;100958.56;;;3.84;77.49
73842;BME280;62184;52.006;5.924;2022-12-07T07:18:45;100965.59;;;3.85;77.60
73842;BME280;62184;52.006;5.924;2022-12-07T07:21:11;100965.59;;;3.85;77.31
73842;BME280;62184;52.006;5.924;2022-12-07T07:23:38;100965.63;;;3.84;77.39
73842;BME280;62184;52.006;5.924;2022-12-07T07:26:04;100962.97;;;3.82;77.36
73842;BME280;62184;52.006;5.924;2022-12-07T07:28:30;100963.84;;;3.81;77.46
73842;BME280;62184;52.006;5.924;2022-12-07T07:30:59;100961.19;;;3.81;77.26
73842;BME280;62184;52.006;5.924;2022-12-07T07:33:26;100959.41;;;3.80;77.33
73842;BME280;62184;52.006;5.924;2022-12-07T07:35:52;100962.94;;;3.81;77.50
73842;BME280;62184;52.006;5.924;2022-12-07T07:38:19;100968.22;;;3.81;77.48
73842;BME280;62184;52.006;5.924;2022-12-07T07:40:45;100969.13;;;3.81;77.41
73842;BME280;62184;52.006;5.924;2022-12-07T07:43:12;100974.41;;;3.81;77.50
73842;BME280;62184;52.006;5.924;2022-12-07T07:45:38;100971.75;;;3.81;77.78
73842;BME280;62184;52.006;5.924;2022-12-07T07:48:07;100964.72;;;3.82;77.84
73842;BME280;62184;52.006;5.924;2022-12-07T07:50:34;100970.00;;;3.86;78.00
73842;BME280;62184;52.006;5.924;2022-12-07T07:53:00;100970.03;;;3.88;77.93
73842;BME280;62184;52.006;5.924;2022-12-07T07:55:27;100975.31;;;3.88;78.12
73842;BME280;62184;52.006;5.924;2022-12-07T07:57:53;100966.50;;;3.90;77.93
73842;BME280;62184;52.006;5.924;2022-12-07T08:00:21;100960.38;;;3.93;78.24
73842;BME280;62184;52.006;5.924;2022-12-07T08:02:48;100966.53;;;3.98;78.00
73842;BME280;62184;52.006;5.924;2022-12-07T08:05:17;100965.69;;;4.01;77.96
73842;BME280;62184;52.006;5.924;2022-12-07T08:07:44;100979.78;;;4.04;78.15
73842;BME280;62184;52.006;5.924;2022-12-07T08:10:11;100974.53;;;4.09;77.91
73842;BME280;62184;52.006;5.924;2022-12-07T08:12:40;100978.97;;;4.17;78.37
73842;BME280;62184;52.006;5.924;2022-12-07T08:15:08;100975.47;;;4.26;78.68
73842;BME280;62184;52.006;5.924;2022-12-07T08:17:35;100972.81;;;4.37;78.70
73842;BME280;62184;52.006;5.924;2022-12-07T08:20:02;100983.44;;;4.47;78.91
73842;BME280;62184;52.006;5.924;2022-12-07T08:22:32;100987.88;;;4.59;79.03
73842;BME280;62184;52.006;5.924;2022-12-07T08:24:59;100996.69;;;4.70;79.17
73842;BME280;62184;52.006;5.924;2022-12-07T08:27:25;100998.47;;;4.80;79.15
73842;BME280;62184;52.006;5.924;2022-12-07T08:29:52;101007.31;;;4.85;79.17
73842;BME280;62184;52.006;5.924;2022-12-07T08:32:18;100999.41;;;4.88;79.21
73842;BME280;62184;52.006;5.924;2022-12-07T08:34:44;100997.66;;;4.90;79.00
73842;BME280;62184;52.006;5.924;2022-12-07T08:37:11;101000.31;;;4.93;79.09
73842;BME280;62184;52.006;5.924;2022-12-07T08:39:40;100989.72;;;4.99;79.05
73842;BME280;62184;52.006;5.924;2022-12-07T08:42:06;100980.88;;;4.99;78.83
73842;BME280;62184;52.006;5.924;2022-12-07T08:44:32;100994.09;;;5.03;78.59
73842;BME280;62184;52.006;5.924;2022-12-07T08:47:02;100991.47;;;5.03;78.36
73842;BME280;62184;52.006;5.924;2022-12-07T08:49:34;100993.22;;;5.06;78.08
73842;BME280;62184;52.006;5.924;2022-12-07T08:52:05;100987.94;;;5.06;77.94
73842;BME280;62184;52.006;5.924;2022-12-07T08:54:33;100982.63;;;5.04;77.90
73842;BME280;62184;52.006;5.924;2022-12-07T08:57:06;100980.88;;;5.06;77.71
73842;BME280;62184;52.006;5.924;2022-12-07T08:59:34;100980.00;;;5.09;77.39
73842;BME280;62184;52.006;5.924;2022-12-07T09:02:03;100983.50;;;5.11;77.21
73842;BME280;62184;52.006;5.924;2022-12-07T09:04:29;100988.84;;;5.19;77.41
73842;BME280;62184;52.006;5.924;2022-12-07T09:06:56;100989.72;;;5.27;77.43
73842;BME280;62184;52.006;5.924;2022-12-07T09:09:22;100990.56;;;5.39;77.53
73842;BME280;62184;52.006;5.924;2022-12-07T09:11:49;100986.13;;;5.46;77.52
73842;BME280;62184;52.006;5.924;2022-12-07T09:14:18;100986.13;;;5.49;77.44
73842;BME280;62184;52.006;5.924;2022-12-07T09:16:44;100987.91;;;5.50;77.53
73842;BME280;62184;52.006;5.924;2022-12-07T09:19:11;100976.41;;;5.56;77.48
73842;BME280;62184;52.006;5.924;2022-12-07T09:21:37;100979.06;;;5.60;77.40
73842;BME280;62184;52.006;5.924;2022-12-07T09:24:04;100988.72;;;5.70;77.74
73842;BME280;62184;52.006;5.924;2022-12-07T09:26:31;100996.66;;;5.81;77.85
73842;BME280;62184;52.006;5.924;2022-12-07T09:28:58;100992.22;;;5.89;77.88
73842;BME280;62184;52.006;5.924;2022-12-07T09:31:27;100999.25;;;5.96;77.91
73842;BME280;62184;52.006;5.924;2022-12-07T09:33:54;100993.91;;;6.05;77.88
73842;BME280;62184;52.006;5.924;2022-12-07T09:36:21;100990.34;;;6.12;77.94
73842;BME280;62184;52.006;5.924;2022-12-07T09:38:47;100987.69;;;6.15;77.79
73842;BME280;62184;52.006;5.924;2022-12-07T09:41:13;100985.03;;;6.15;77.46
73842;BME280;62184;52.006;5.924;2022-12-07T09:43:40;100989.47;;;6.15;77.37
73842;BME280;62184;52.006;5.924;2022-12-07T09:46:13;100982.38;;;6.17;77.28
73842;BME280;62184;52.006;5.924;2022-12-07T09:48:46;100987.66;;;6.24;77.31
73842;BME280;62184;52.006;5.924;2022-12-07T09:51:18;100986.72;;;6.35;77.65
73842;BME280;62184;52.006;5.924;2022-12-07T09:53:47;100977.72;;;6.57;78.06
73842;BME280;62184;52.006;5.924;2022-12-07T09:56:16;100981.16;;;6.77;77.71
73842;BME280;62184;52.006;5.924;2022-12-07T09:58:45;100975.84;;;6.74;77.15
73842;BME280;62184;52.006;5.924;2022-12-07T10:01:14;100968.78;;;6.70;76.77
73842;BME280;62184;52.006;5.924;2022-12-07T10:03:52;100971.50;;;6.64;76.30
73842;BME280;62184;52.006;5.924;2022-12-07T10:06:21;100964.41;;;6.61;76.22
73842;BME280;62184;52.006;5.924;2022-12-07T10:08:49;100975.03;;;6.61;76.31
73842;BME280;62184;52.006;5.924;2022-12-07T10:11:16;100968.00;;;6.60;76.23
73842;BME280;62184;52.006;5.924;2022-12-07T10:13:44;100968.88;;;6.55;76.27
73842;BME280;62184;52.006;5.924;2022-12-07T10:16:31;100964.50;;;6.51;76.36
73842;BME280;62184;52.006;5.924;2022-12-07T10:19:23;100957.44;;;6.53;76.45
73842;BME280;62184;52.006;5.924;2022-12-07T10:22:03;100963.63;;;6.52;76.41
73842;BME280;62184;52.006;5.924;2022-12-07T10:24:34;100965.41;;;6.47;76.34
73842;BME280;62184;52.006;5.924;2022-12-07T10:27:01;100965.44;;;6.44;76.43
73842;BME280;62184;52.006;5.924;2022-12-07T10:29:30;100955.69;;;6.49;76.61
73842;BME280;62184;52.006;5.924;2022-12-07T10:32:00;100952.94;;;6.61;76.61
73842;BME280;62184;52.006;5.924;2022-12-07T10:34:33;100948.44;;;6.71;76.37
73842;BME280;62184;52.006;5.924;2022-12-07T10:37:15;100940.47;;;6.72;76.34
73842;BME280;62184;52.006;5.924;2022-12-07T10:39:44;100941.34;;;6.74;76.48
73842;BME280;62184;52.006;5.924;2022-12-07T10:42:18;100939.50;;;6.84;76.44
73842;BME280;62184;52.006;5.924;2022-12-07T10:44:46;100930.59;;;6.88;76.48
73842;BME280;62184;52.006;5.924;2022-12-07T10:47:29;100935.88;;;6.94;76.38
73842;BME280;62184;52.006;5.924;2022-12-07T10:50:17;100935.81;;;7.00;76.52
73842;BME280;62184;52.006;5.924;2022-12-07T10:53:06;100941.03;;;7.11;76.61
73842;BME280;62184;52.006;5.924;2022-12-07T10:56:02;100931.25;;;7.17;76.56
73842;BME280;62184;52.006;5.924;2022-12-07T10:58:52;100925.88;;;7.22;76.46
73842;BME280;62184;52.006;5.924;2022-12-07T11:01:32;100917.91;;;7.22;76.14
73842;BME280;62184;52.006;5.924;2022-12-07T11:04:24;100928.59;;;7.16;75.61
73842;BME280;62184;52.006;5.924;2022-12-07T11:07:06;100926.03;;;7.04;75.21
73842;BME280;62184;52.006;5.924;2022-12-07T11:09:59;100919.91;;;6.95;75.16
73842;BME280;62184;52.006;5.924;2022-12-07T11:12:41;100912.88;;;6.91;74.86
73842;BME280;62184;52.006;5.924;2022-12-07T11:15:22;100914.72;;;6.82;74.89
73842;BME280;62184;52.006;5.924;2022-12-07T11:18:00;100912.06;;;6.82;75.17
73842;BME280;62184;52.006;5.924;2022-12-07T11:20:41;100912.03;;;6.88;75.01
73842;BME280;62184;52.006;5.924;2022-12-07T11:23:21;100903.16;;;6.90;74.87
73842;BME280;62184;52.006;5.924;2022-12-07T11:26:07;100907.56;;;6.93;74.97
73842;BME280;62184;52.006;5.924;2022-12-07T11:29:09;100906.63;;;6.95;75.13
73842;BME280;62184;52.006;5.924;2022-12-07T11:31:58;100904.84;;;6.97;75.01
73842;BME280;62184;52.006;5.924;2022-12-07T11:34:39;100890.69;;;6.97;75.21
73842;BME280;62184;52.006;5.924;2022-12-07T11:37:17;100886.19;;;7.04;75.17
73842;BME280;62184;52.006;5.924;2022-12-07T11:39:51;100890.59;;;7.08;75.18
73842;BME280;62184;52.006;5.924;2022-12-07T11:42:23;100894.13;;;7.11;75.39
73842;BME280;62184;52.006;5.924;2022-12-07T11:44:56;100889.63;;;7.19;75.34
73842;BME280;62184;52.006;5.924;2022-12-07T11:47:33;100890.44;;;7.23;75.40
73842;BME280;62184;52.006;5.924;2022-12-07T11:50:20;100884.25;;;7.24;75.33
73842;BME280;62184;52.006;5.924;2022-12-07T11:52:56;100876.25;;;7.27;75.45
73842;BME280;62184;52.006;5.924;2022-12-07T11:55:32;100878.84;;;7.30;75.47
73842;BME280;62184;52.006;5.924;2022-12-07T12:01:18;100883.22;;;7.37;74.89
73842;BME280;62184;52.006;5.924;2022-12-07T12:03:58;100873.53;;;7.36;74.41
73842;BME280;62184;52.006;5.924;2022-12-07T12:06:32;100876.22;;;7.31;74.30
73842;BME280;62184;52.006;5.924;2022-12-07T12:09:03;100871.81;;;7.27;73.91
73842;BME280;62184;52.006;5.924;2022-12-07T12:11:50;100868.31;;;7.24;73.94
73842;BME280;62184;52.006;5.924;2022-12-07T12:14:47;100855.09;;;7.19;73.90
73842;BME280;62184;52.006;5.924;2022-12-07T12:17:48;100855.09;;;7.19;74.35
73842;BME280;62184;52.006;5.924;2022-12-07T12:20:31;100862.00;;;7.35;74.92
73842;BME280;62184;52.006;5.924;2022-12-07T12:23:10;100859.97;;;7.57;75.44
73842;BME280;62184;52.006;5.924;2022-12-07T12:25:43;100844.59;;;7.79;75.77
73842;BME280;62184;52.006;5.924;2022-12-07T12:28:24;100846.28;;;7.88;75.19
73842;BME280;62184;52.006;5.924;2022-12-07T12:31:06;100845.34;;;7.90;74.64
73842;BME280;62184;52.006;5.924;2022-12-07T12:33:36;100851.50;;;7.95;74.51
73842;BME280;62184;52.006;5.924;2022-12-07T12:36:18;100844.34;;;8.00;74.87
73842;BME280;62184;52.006;5.924;2022-12-07T12:38:49;100844.97;;;8.16;75.14
73842;BME280;62184;52.006;5.924;2022-12-07T12:41:54;100827.88;;;8.32;74.87
73842;BME280;62184;52.006;5.924;2022-12-07T12:44:43;100828.59;;;8.43;74.67
73842;BME280;62184;52.006;5.924;2022-12-07T12:50:47;100825.09;;;8.40;73.44
73842;BME280;62184;52.006;5.924;2022-12-07T12:53:21;100826.19;;;8.27;73.03
73842;BME280;62184;52.006;5.924;2022-12-07T12:56:23;100813.97;;;8.13;72.85
73842;BME280;62184;52.006;5.924;2022-12-07T12:59:22;100815.75;;;8.14;72.74
73842;BME280;62184;52.006;5.924;2022-12-07T13:01:56;100813.03;;;8.18;72.81
73842;BME280;62184;52.006;5.924;2022-12-07T13:04:51;100806.81;;;8.20;72.78
73842;BME280;62184;52.006;5.924;2022-12-07T13:10:42;100801.41;;;8.25;72.30
73842;BME280;62184;52.006;5.924;2022-12-07T13:13:30;100796.91;;;8.28;72.41
73842;BME280;62184;52.006;5.924;2022-12-07T13:22:54;100793.31;;;8.31;72.31
73842;BME280;62184;52.006;5.924;2022-12-07T13:25:31;100799.50;;;8.33;72.04
73842;BME280;62184;52.006;5.924;2022-12-07T13:28:10;100779.91;;;8.37;72.70
73842;BME280;62184;52.006;5.924;2022-12-07T13:31:00;100781.59;;;8.42;72.31
73842;BME280;62184;52.006;5.924;2022-12-07T13:33:35;100781.47;;;8.48;72.01
73842;BME280;62184;52.006;5.924;2022-12-07T13:36:02;100773.47;;;8.50;71.87
73842;BME280;62184;52.006;5.924;2022-12-07T13:38:33;100767.25;;;8.51;71.68
73842;BME280;62184;52.006;5.924;2022-12-07T13:41:03;100771.66;;;8.54;71.76
73842;BME280;62184;52.006;5.924;2022-12-07T13:43:31;100769.84;;;8.54;71.78
73842;BME280;62184;52.006;5.924;2022-12-07T13:46:09;100761.97;;;8.48;71.60
73842;BME280;62184;52.006;5.924;2022-12-07T13:48:43;100760.19;;;8.48;71.72